sensor_id;sensor_type;location;lat;lon;timestamp;P1;durP1;ratioP1;P2;durP2;ratioP2
38693;SDS011;24447;43.460;25.744;2024-03-22T00:01:46;3.75;;;1.65;;
38693;SDS011;24447;43.460;25.744;2024-03-22T00:04:12;2.40;;;1.23;;
38693;SDS011;24447;43.460;25.744;2024-03-22T00:06:39;5.43;;;1.88;;
38693;SDS011;24447;43.460;25.744;2024-03-22T00:09:06;3.92;;;1.95;;
38693;SDS011;24447;43.460;25.744;2024-03-22T00:11:32;2.63;;;2.17;;
38693;SDS011;24447;43.460;25.744;2024-03-22T00:13:58;4.43;;;1.83;;
38693;SDS011;24447;43.460;25.744;2024-03-22T00:16:24;5.50;;;2.25;;
38693;SDS011;24447;43.460;25.744;2024-03-22T00:18:50;4.55;;;2.08;;
38693;SDS011;24447;43.460;25.744;2024-03-22T00:21:16;2.95;;;2.25;;
38693;SDS011;24447;43.460;25.744;2024-03-22T00:23:43;5.63;;;1.98;;
38693;SDS011;24447;43.460;25.744;2024-03-22T00:26:09;4.07;;;1.85;;
38693;SDS011;24447;43.460;25.744;2024-03-22T00:28:35;5.68;;;1.73;;
38693;SDS011;24447;43.460;25.744;2024-03-22T00:31:01;1.80;;;1.40;;
38693;SDS011;24447;43.460;25.744;2024-03-22T00:33:26;2.92;;;1.67;;
38693;SDS011;24447;43.460;25.744;2024-03-22T00:35:52;4.43;;;1.80;;
38693;SDS011;24447;43.460;25.744;2024-03-22T00:38:18;5.95;;;2.40;;
38693;SDS011;24447;43.460;25.744;2024-03-22T00:40:44;6.88;;;3.55;;
38693;SDS011;24447;43.460;25.744;2024-03-22T00:43:10;4.70;;;2.13;;
38693;SDS011;24447;43.460;25.744;2024-03-22T00:45:36;3.05;;;1.90;;
38693;SDS011;24447;43.460;25.744;2024-03-22T00:48:02;5.20;;;2.30;;
38693;SDS011;24447;43.460;25.744;2024-03-22T00:50:28;5.50;;;1.95;;
38693;SDS011;24447;43.460;25.744;2024-03-22T00:52:54;5.93;;;2.28;;
38693;SDS011;24447;43.460;25.744;2024-03-22T00:55:23;4.10;;;1.70;;
38693;SDS011;24447;43.460;25.744;2024-03-22T00:57:50;2.55;;;1.27;;
38693;SDS011;24447;43.460;25.744;2024-03-22T01:00:16;5.35;;;2.00;;
38693;SDS011;24447;43.460;25.744;2024-03-22T01:02:43;2.97;;;1.48;;
38693;SDS011;24447;43.460;25.744;2024-03-22T01:05:09;3.15;;;1.73;;
38693;SDS011;24447;43.460;25.744;2024-03-22T01:07:35;5.40;;;1.67;;
38693;SDS011;24447;43.460;25.744;2024-03-22T01:10:02;5.70;;;1.63;;
38693;SDS011;24447;43.460;25.744;2024-03-22T01:12:28;7.53;;;1.90;;
38693;SDS011;24447;43.460;25.744;2024-03-22T01:14:54;7.32;;;2.15;;
38693;SDS011;24447;43.460;25.744;2024-03-22T01:17:20;2.10;;;1.73;;
38693;SDS011;24447;43.460;25.744;2024-03-22T01:19:46;6.05;;;1.98;;
38693;SDS011;24447;43.460;25.744;2024-03-22T01:22:12;6.85;;;2.50;;
38693;SDS011;24447;43.460;25.744;2024-03-22T01:24:38;3.10;;;2.17;;
38693;SDS011;24447;43.460;25.744;2024-03-22T01:27:04;10.15;;;3.05;;
38693;SDS011;24447;43.460;25.744;2024-03-22T01:29:30;3.72;;;2.20;;
38693;SDS011;24447;43.460;25.744;2024-03-22T01:31:57;6.30;;;2.33;;
38693;SDS011;24447;43.460;25.744;2024-03-22T01:34:24;8.30;;;2.65;;
38693;SDS011;24447;43.460;25.744;2024-03-22T01:36:50;5.35;;;2.40;;
38693;SDS011;24447;43.460;25.744;2024-03-22T01:39:18;6.68;;;2.78;;
38693;SDS011;24447;43.460;25.744;2024-03-22T01:41:46;6.93;;;2.55;;
38693;SDS011;24447;43.460;25.744;2024-03-22T01:44:15;9.50;;;2.58;;
38693;SDS011;24447;43.460;25.744;2024-03-22T01:46:42;6.97;;;2.08;;
38693;SDS011;24447;43.460;25.744;2024-03-22T01:49:08;6.70;;;2.17;;
38693;SDS011;24447;43.460;25.744;2024-03-22T01:51:35;5.57;;;2.00;;
38693;SDS011;24447;43.460;25.744;2024-03-22T01:54:02;4.18;;;2.42;;
38693;SDS011;24447;43.460;25.744;2024-03-22T01:56:29;6.53;;;2.40;;
38693;SDS011;24447;43.460;25.744;2024-03-22T01:58:55;6.00;;;2.05;;
38693;SDS011;24447;43.460;25.744;2024-03-22T02:01:22;7.55;;;2.92;;
38693;SDS011;24447;43.460;25.744;2024-03-22T02:03:48;10.82;;;3.03;;
38693;SDS011;24447;43.460;25.744;2024-03-22T02:06:14;6.80;;;2.00;;
38693;SDS011;24447;43.460;25.744;2024-03-22T02:08:40;7.85;;;2.55;;
38693;SDS011;24447;43.460;25.744;2024-03-22T02:11:07;4.57;;;2.15;;
38693;SDS011;24447;43.460;25.744;2024-03-22T02:13:33;9.70;;;4.43;;
38693;SDS011;24447;43.460;25.744;2024-03-22T02:16:02;9.55;;;3.30;;
38693;SDS011;24447;43.460;25.744;2024-03-22T02:18:29;9.45;;;3.25;;
38693;SDS011;24447;43.460;25.744;2024-03-22T02:20:56;7.45;;;3.42;;
38693;SDS011;24447;43.460;25.744;2024-03-22T02:23:32;7.93;;;3.13;;
38693;SDS011;24447;43.460;25.744;2024-03-22T02:25:59;9.88;;;3.30;;
38693;SDS011;24447;43.460;25.744;2024-03-22T02:28:25;12.25;;;3.40;;
38693;SDS011;24447;43.460;25.744;2024-03-22T02:30:51;9.60;;;4.13;;
38693;SDS011;24447;43.460;25.744;2024-03-22T02:33:17;7.03;;;2.97;;
38693;SDS011;24447;43.460;25.744;2024-03-22T02:35:43;12.85;;;3.53;;
38693;SDS011;24447;43.460;25.744;2024-03-22T02:38:12;13.93;;;3.63;;
38693;SDS011;24447;43.460;25.744;2024-03-22T02:40:37;11.48;;;3.30;;
38693;SDS011;24447;43.460;25.744;2024-03-22T02:43:03;10.18;;;3.45;;
38693;SDS011;24447;43.460;25.744;2024-03-22T02:45:30;6.07;;;3.22;;
38693;SDS011;24447;43.460;25.744;2024-03-22T02:47:56;7.72;;;3.10;;
38693;SDS011;24447;43.460;25.744;2024-03-22T02:50:22;8.75;;;2.55;;
38693;SDS011;24447;43.460;25.744;2024-03-22T02:52:48;6.80;;;2.85;;
38693;SDS011;24447;43.460;25.744;2024-03-22T02:55:14;8.77;;;3.03;;
38693;SDS011;24447;43.460;25.744;2024-03-22T02:57:40;7.45;;;3.22;;
38693;SDS011;24447;43.460;25.744;2024-03-22T03:00:06;9.38;;;2.85;;
38693;SDS011;24447;43.460;25.744;2024-03-22T03:02:32;5.35;;;2.80;;
38693;SDS011;24447;43.460;25.744;2024-03-22T03:04:58;5.10;;;2.53;;
38693;SDS011;24447;43.460;25.744;2024-03-22T03:07:25;7.03;;;2.55;;
38693;SDS011;24447;43.460;25.744;2024-03-22T03:09:51;5.43;;;2.17;;
38693;SDS011;24447;43.460;25.744;2024-03-22T03:12:17;10.40;;;4.13;;
38693;SDS011;24447;43.460;25.744;2024-03-22T03:14:42;9.13;;;3.30;;
38693;SDS011;24447;43.460;25.744;2024-03-22T03:17:08;7.32;;;2.97;;
38693;SDS011;24447;43.460;25.744;2024-03-22T03:19:34;10.52;;;3.00;;
38693;SDS011;24447;43.460;25.744;2024-03-22T03:22:00;8.27;;;2.75;;
38693;SDS011;24447;43.460;25.744;2024-03-22T03:24:26;8.25;;;3.03;;
38693;SDS011;24447;43.460;25.744;2024-03-22T03:26:52;9.77;;;3.05;;
38693;SDS011;24447;43.460;25.744;2024-03-22T03:29:18;9.73;;;3.03;;
38693;SDS011;24447;43.460;25.744;2024-03-22T03:31:44;7.55;;;3.00;;
38693;SDS011;24447;43.460;25.744;2024-03-22T03:34:10;5.45;;;1.90;;
38693;SDS011;24447;43.460;25.744;2024-03-22T03:36:36;5.35;;;2.28;;
38693;SDS011;24447;43.460;25.744;2024-03-22T03:39:02;11.07;;;4.20;;
38693;SDS011;24447;43.460;25.744;2024-03-22T03:41:31;7.95;;;3.08;;
38693;SDS011;24447;43.460;25.744;2024-03-22T03:43:57;5.38;;;2.60;;
38693;SDS011;24447;43.460;25.744;2024-03-22T03:46:23;9.65;;;4.30;;
38693;SDS011;24447;43.460;25.744;2024-03-22T03:48:49;11.45;;;3.10;;
38693;SDS011;24447;43.460;25.744;2024-03-22T03:51:15;11.48;;;3.60;;
38693;SDS011;24447;43.460;25.744;2024-03-22T03:53:41;13.93;;;3.60;;
38693;SDS011;24447;43.460;25.744;2024-03-22T03:56:07;15.88;;;4.30;;
38693;SDS011;24447;43.460;25.744;2024-03-22T03:58:33;6.03;;;3.28;;
38693;SDS011;24447;43.460;25.744;2024-03-22T04:00:58;18.48;;;4.20;;
38693;SDS011;24447;43.460;25.744;2024-03-22T04:03:24;8.55;;;3.35;;
38693;SDS011;24447;43.460;25.744;2024-03-22T04:05:57;13.10;;;3.80;;
38693;SDS011;24447;43.460;25.744;2024-03-22T04:08:24;10.75;;;4.38;;
38693;SDS011;24447;43.460;25.744;2024-03-22T04:10:51;10.65;;;3.95;;
38693;SDS011;24447;43.460;25.744;2024-03-22T04:13:18;14.40;;;4.13;;
38693;SDS011;24447;43.460;25.744;2024-03-22T04:15:44;15.05;;;4.43;;
38693;SDS011;24447;43.460;25.744;2024-03-22T04:18:10;14.43;;;4.03;;
38693;SDS011;24447;43.460;25.744;2024-03-22T04:20:35;9.27;;;3.35;;
38693;SDS011;24447;43.460;25.744;2024-03-22T04:23:01;12.68;;;3.33;;
38693;SDS011;24447;43.460;25.744;2024-03-22T04:25:27;12.57;;;4.60;;
38693;SDS011;24447;43.460;25.744;2024-03-22T04:27:53;22.42;;;6.00;;
38693;SDS011;24447;43.460;25.744;2024-03-22T04:30:19;12.45;;;4.47;;
38693;SDS011;24447;43.460;25.744;2024-03-22T04:32:48;9.07;;;3.67;;
38693;SDS011;24447;43.460;25.744;2024-03-22T04:35:14;14.43;;;4.55;;
38693;SDS011;24447;43.460;25.744;2024-03-22T04:37:40;12.75;;;4.63;;
38693;SDS011;24447;43.460;25.744;2024-03-22T04:40:06;9.77;;;4.65;;
38693;SDS011;24447;43.460;25.744;2024-03-22T04:42:34;12.70;;;3.80;;
38693;SDS011;24447;43.460;25.744;2024-03-22T04:45:00;12.00;;;4.20;;
38693;SDS011;24447;43.460;25.744;2024-03-22T04:47:26;12.40;;;4.72;;
38693;SDS011;24447;43.460;25.744;2024-03-22T04:49:52;16.75;;;4.28;;
38693;SDS011;24447;43.460;25.744;2024-03-22T04:52:18;14.60;;;4.93;;
38693;SDS011;24447;43.460;25.744;2024-03-22T04:54:44;8.95;;;3.92;;
38693;SDS011;24447;43.460;25.744;2024-03-22T04:57:10;10.32;;;4.20;;
38693;SDS011;24447;43.460;25.744;2024-03-22T04:59:36;12.55;;;5.05;;
38693;SDS011;24447;43.460;25.744;2024-03-22T05:02:02;16.23;;;5.20;;
38693;SDS011;24447;43.460;25.744;2024-03-22T05:04:27;16.08;;;5.72;;
38693;SDS011;24447;43.460;25.744;2024-03-22T05:06:53;18.67;;;7.13;;
38693;SDS011;24447;43.460;25.744;2024-03-22T05:09:19;20.63;;;7.03;;
38693;SDS011;24447;43.460;25.744;2024-03-22T05:11:45;12.23;;;4.63;;
38693;SDS011;24447;43.460;25.744;2024-03-22T05:14:15;17.55;;;5.35;;
38693;SDS011;24447;43.460;25.744;2024-03-22T05:16:40;9.98;;;4.40;;
38693;SDS011;24447;43.460;25.744;2024-03-22T05:19:07;12.23;;;4.55;;
38693;SDS011;24447;43.460;25.744;2024-03-22T05:21:32;22.83;;;7.18;;
38693;SDS011;24447;43.460;25.744;2024-03-22T05:23:59;11.20;;;4.68;;
38693;SDS011;24447;43.460;25.744;2024-03-22T05:26:25;16.38;;;4.88;;
38693;SDS011;24447;43.460;25.744;2024-03-22T05:28:50;15.02;;;5.28;;
38693;SDS011;24447;43.460;25.744;2024-03-22T05:31:17;14.98;;;5.50;;
38693;SDS011;24447;43.460;25.744;2024-03-22T05:33:43;28.98;;;9.40;;
38693;SDS011;24447;43.460;25.744;2024-03-22T05:36:09;25.45;;;7.95;;
38693;SDS011;24447;43.460;25.744;2024-03-22T05:38:35;17.30;;;7.18;;
38693;SDS011;24447;43.460;25.744;2024-03-22T05:41:04;23.83;;;8.10;;
38693;SDS011;24447;43.460;25.744;2024-03-22T05:43:30;36.88;;;12.25;;
38693;SDS011;24447;43.460;25.744;2024-03-22T05:45:56;28.23;;;9.27;;
38693;SDS011;24447;43.460;25.744;2024-03-22T05:48:22;25.88;;;7.93;;
38693;SDS011;24447;43.460;25.744;2024-03-22T05:50:48;18.98;;;6.85;;
38693;SDS011;24447;43.460;25.744;2024-03-22T05:53:14;24.80;;;8.07;;
38693;SDS011;24447;43.460;25.744;2024-03-22T05:55:39;19.73;;;8.10;;
38693;SDS011;24447;43.460;25.744;2024-03-22T05:58:05;23.63;;;7.78;;
38693;SDS011;24447;43.460;25.744;2024-03-22T06:00:32;22.25;;;9.45;;
38693;SDS011;24447;43.460;25.744;2024-03-22T06:02:58;19.92;;;8.10;;
38693;SDS011;24447;43.460;25.744;2024-03-22T06:05:25;20.08;;;7.25;;
38693;SDS011;24447;43.460;25.744;2024-03-22T06:07:51;24.33;;;7.90;;
38693;SDS011;24447;43.460;25.744;2024-03-22T06:10:17;24.05;;;6.95;;
38693;SDS011;24447;43.460;25.744;2024-03-22T06:12:43;16.17;;;6.75;;
38693;SDS011;24447;43.460;25.744;2024-03-22T06:15:12;20.27;;;7.35;;
38693;SDS011;24447;43.460;25.744;2024-03-22T06:17:38;14.30;;;6.18;;
38693;SDS011;24447;43.460;25.744;2024-03-22T06:20:04;20.30;;;7.82;;
38693;SDS011;24447;43.460;25.744;2024-03-22T06:22:30;18.40;;;7.65;;
38693;SDS011;24447;43.460;25.744;2024-03-22T06:24:56;18.20;;;7.10;;
38693;SDS011;24447;43.460;25.744;2024-03-22T06:27:22;51.08;;;17.20;;
38693;SDS011;24447;43.460;25.744;2024-03-22T06:29:48;34.78;;;13.23;;
38693;SDS011;24447;43.460;25.744;2024-03-22T06:32:14;40.10;;;13.32;;
38693;SDS011;24447;43.460;25.744;2024-03-22T06:34:40;17.80;;;6.25;;
38693;SDS011;24447;43.460;25.744;2024-03-22T06:37:06;19.42;;;7.38;;
38693;SDS011;24447;43.460;25.744;2024-03-22T06:39:32;22.40;;;10.07;;
38693;SDS011;24447;43.460;25.744;2024-03-22T06:41:58;28.92;;;10.50;;
38693;SDS011;24447;43.460;25.744;2024-03-22T06:44:24;34.38;;;12.65;;
38693;SDS011;24447;43.460;25.744;2024-03-22T06:46:50;24.52;;;9.48;;
38693;SDS011;24447;43.460;25.744;2024-03-22T06:49:15;28.80;;;10.15;;
38693;SDS011;24447;43.460;25.744;2024-03-22T06:51:42;26.13;;;9.55;;
38693;SDS011;24447;43.460;25.744;2024-03-22T06:54:08;38.80;;;19.63;;
38693;SDS011;24447;43.460;25.744;2024-03-22T06:56:34;19.13;;;8.23;;
38693;SDS011;24447;43.460;25.744;2024-03-22T06:59:00;15.82;;;6.70;;
38693;SDS011;24447;43.460;25.744;2024-03-22T07:01:25;16.77;;;7.47;;
38693;SDS011;24447;43.460;25.744;2024-03-22T07:03:51;18.40;;;6.53;;
38693;SDS011;24447;43.460;25.744;2024-03-22T07:06:17;11.88;;;4.88;;
38693;SDS011;24447;43.460;25.744;2024-03-22T07:08:43;16.50;;;6.32;;
38693;SDS011;24447;43.460;25.744;2024-03-22T07:11:09;12.90;;;5.68;;
38693;SDS011;24447;43.460;25.744;2024-03-22T07:13:36;13.63;;;5.35;;
38693;SDS011;24447;43.460;25.744;2024-03-22T07:16:02;13.90;;;6.00;;
38693;SDS011;24447;43.460;25.744;2024-03-22T07:18:28;17.88;;;6.75;;
38693;SDS011;24447;43.460;25.744;2024-03-22T07:20:54;19.13;;;6.72;;
38693;SDS011;24447;43.460;25.744;2024-03-22T07:23:20;14.93;;;7.80;;
38693;SDS011;24447;43.460;25.744;2024-03-22T07:25:46;13.75;;;6.07;;
38693;SDS011;24447;43.460;25.744;2024-03-22T07:28:13;13.07;;;5.05;;
38693;SDS011;24447;43.460;25.744;2024-03-22T07:30:41;11.32;;;4.32;;
38693;SDS011;24447;43.460;25.744;2024-03-22T07:33:07;9.48;;;3.65;;
38693;SDS011;24447;43.460;25.744;2024-03-22T07:35:36;6.65;;;3.47;;
38693;SDS011;24447;43.460;25.744;2024-03-22T07:38:02;14.18;;;3.38;;
38693;SDS011;24447;43.460;25.744;2024-03-22T07:40:29;7.28;;;3.25;;
38693;SDS011;24447;43.460;25.744;2024-03-22T07:42:55;8.13;;;3.50;;
38693;SDS011;24447;43.460;25.744;2024-03-22T07:45:21;5.88;;;3.10;;
38693;SDS011;24447;43.460;25.744;2024-03-22T07:47:46;10.80;;;4.47;;
38693;SDS011;24447;43.460;25.744;2024-03-22T07:50:13;15.18;;;4.93;;
38693;SDS011;24447;43.460;25.744;2024-03-22T07:52:40;12.82;;;5.00;;
38693;SDS011;24447;43.460;25.744;2024-03-22T07:55:06;7.38;;;3.25;;
38693;SDS011;24447;43.460;25.744;2024-03-22T07:57:32;7.00;;;3.40;;
38693;SDS011;24447;43.460;25.744;2024-03-22T07:59:58;8.85;;;3.53;;
38693;SDS011;24447;43.460;25.744;2024-03-22T08:02:24;7.45;;;3.72;;
38693;SDS011;24447;43.460;25.744;2024-03-22T08:04:50;8.00;;;3.13;;
38693;SDS011;24447;43.460;25.744;2024-03-22T08:07:16;7.10;;;3.05;;
38693;SDS011;24447;43.460;25.744;2024-03-22T08:09:42;8.68;;;3.20;;
38693;SDS011;24447;43.460;25.744;2024-03-22T08:12:08;9.80;;;3.78;;
38693;SDS011;24447;43.460;25.744;2024-03-22T08:14:34;6.63;;;3.33;;
38693;SDS011;24447;43.460;25.744;2024-03-22T08:17:00;6.82;;;3.25;;
38693;SDS011;24447;43.460;25.744;2024-03-22T08:19:26;7.22;;;3.80;;
38693;SDS011;24447;43.460;25.744;2024-03-22T08:21:52;5.68;;;3.00;;
38693;SDS011;24447;43.460;25.744;2024-03-22T08:24:18;8.30;;;3.90;;
38693;SDS011;24447;43.460;25.744;2024-03-22T08:26:44;7.28;;;3.75;;
38693;SDS011;24447;43.460;25.744;2024-03-22T08:29:11;17.33;;;3.92;;
38693;SDS011;24447;43.460;25.744;2024-03-22T08:31:38;7.72;;;3.13;;
38693;SDS011;24447;43.460;25.744;2024-03-22T08:34:03;6.75;;;3.38;;
38693;SDS011;24447;43.460;25.744;2024-03-22T08:36:30;11.05;;;4.50;;
38693;SDS011;24447;43.460;25.744;2024-03-22T08:38:56;7.63;;;2.78;;
38693;SDS011;24447;43.460;25.744;2024-03-22T08:41:22;6.93;;;3.42;;
38693;SDS011;24447;43.460;25.744;2024-03-22T08:43:48;10.18;;;3.75;;
38693;SDS011;24447;43.460;25.744;2024-03-22T08:46:14;7.00;;;3.33;;
38693;SDS011;24447;43.460;25.744;2024-03-22T08:48:40;8.43;;;3.30;;
38693;SDS011;24447;43.460;25.744;2024-03-22T08:51:06;7.05;;;4.13;;
38693;SDS011;24447;43.460;25.744;2024-03-22T08:53:32;11.45;;;4.18;;
38693;SDS011;24447;43.460;25.744;2024-03-22T08:55:57;7.85;;;3.53;;
38693;SDS011;24447;43.460;25.744;2024-03-22T08:58:24;9.30;;;3.55;;
38693;SDS011;24447;43.460;25.744;2024-03-22T09:00:50;8.93;;;4.35;;
38693;SDS011;24447;43.460;25.744;2024-03-22T09:03:16;7.65;;;3.72;;
38693;SDS011;24447;43.460;25.744;2024-03-22T09:05:43;7.93;;;3.42;;
38693;SDS011;24447;43.460;25.744;2024-03-22T09:08:09;8.15;;;3.35;;
38693;SDS011;24447;43.460;25.744;2024-03-22T09:10:34;10.27;;;3.38;;
38693;SDS011;24447;43.460;25.744;2024-03-22T09:13:00;8.38;;;3.42;;
38693;SDS011;24447;43.460;25.744;2024-03-22T09:15:27;12.00;;;4.28;;
38693;SDS011;24447;43.460;25.744;2024-03-22T09:17:53;9.25;;;3.92;;
38693;SDS011;24447;43.460;25.744;2024-03-22T09:20:19;8.85;;;3.53;;
38693;SDS011;24447;43.460;25.744;2024-03-22T09:22:45;4.93;;;2.80;;
38693;SDS011;24447;43.460;25.744;2024-03-22T09:25:11;11.90;;;3.83;;
38693;SDS011;24447;43.460;25.744;2024-03-22T09:27:37;8.18;;;3.33;;
38693;SDS011;24447;43.460;25.744;2024-03-22T09:30:03;9.40;;;3.70;;
38693;SDS011;24447;43.460;25.744;2024-03-22T09:32:29;10.30;;;3.55;;
38693;SDS011;24447;43.460;25.744;2024-03-22T09:34:56;6.22;;;3.05;;
38693;SDS011;24447;43.460;25.744;2024-03-22T09:37:22;7.90;;;3.70;;
38693;SDS011;24447;43.460;25.744;2024-03-22T09:39:48;8.10;;;3.85;;
38693;SDS011;24447;43.460;25.744;2024-03-22T09:42:16;8.70;;;3.67;;
38693;SDS011;24447;43.460;25.744;2024-03-22T09:44:48;9.52;;;3.83;;
38693;SDS011;24447;43.460;25.744;2024-03-22T09:47:16;5.38;;;3.22;;
38693;SDS011;24447;43.460;25.744;2024-03-22T09:49:42;7.80;;;3.65;;
38693;SDS011;24447;43.460;25.744;2024-03-22T09:52:11;8.77;;;3.15;;
38693;SDS011;24447;43.460;25.744;2024-03-22T09:54:40;6.43;;;3.08;;
38693;SDS011;24447;43.460;25.744;2024-03-22T09:57:09;19.25;;;6.90;;
38693;SDS011;24447;43.460;25.744;2024-03-22T09:59:43;10.25;;;3.95;;
38693;SDS011;24447;43.460;25.744;2024-03-22T10:02:11;6.25;;;3.10;;
38693;SDS011;24447;43.460;25.744;2024-03-22T10:04:40;5.25;;;2.95;;
38693;SDS011;24447;43.460;25.744;2024-03-22T10:07:07;9.13;;;3.47;;
38693;SDS011;24447;43.460;25.744;2024-03-22T10:09:35;8.38;;;3.05;;
38693;SDS011;24447;43.460;25.744;2024-03-22T10:12:01;9.02;;;3.30;;
38693;SDS011;24447;43.460;25.744;2024-03-22T10:14:28;8.77;;;3.38;;
38693;SDS011;24447;43.460;25.744;2024-03-22T10:16:54;8.70;;;3.65;;
38693;SDS011;24447;43.460;25.744;2024-03-22T10:19:21;10.68;;;3.38;;
38693;SDS011;24447;43.460;25.744;2024-03-22T10:21:47;8.00;;;3.35;;
38693;SDS011;24447;43.460;25.744;2024-03-22T10:24:24;5.65;;;3.15;;
38693;SDS011;24447;43.460;25.744;2024-03-22T10:26:50;7.43;;;2.92;;
38693;SDS011;24447;43.460;25.744;2024-03-22T10:29:16;11.30;;;4.53;;
38693;SDS011;24447;43.460;25.744;2024-03-22T10:31:42;7.32;;;3.42;;
38693;SDS011;24447;43.460;25.744;2024-03-22T10:34:09;8.00;;;3.40;;
38693;SDS011;24447;43.460;25.744;2024-03-22T10:36:37;8.60;;;3.95;;
38693;SDS011;24447;43.460;25.744;2024-03-22T10:39:03;8.73;;;3.72;;
38693;SDS011;24447;43.460;25.744;2024-03-22T10:41:29;6.82;;;2.85;;
38693;SDS011;24447;43.460;25.744;2024-03-22T10:43:55;6.68;;;3.00;;
38693;SDS011;24447;43.460;25.744;2024-03-22T10:46:21;12.10;;;3.75;;
38693;SDS011;24447;43.460;25.744;2024-03-22T10:48:48;7.72;;;3.00;;
38693;SDS011;24447;43.460;25.744;2024-03-22T10:51:14;5.72;;;3.25;;
38693;SDS011;24447;43.460;25.744;2024-03-22T10:53:41;7.22;;;2.95;;
38693;SDS011;24447;43.460;25.744;2024-03-22T10:56:07;9.80;;;3.70;;
38693;SDS011;24447;43.460;25.744;2024-03-22T10:58:34;5.18;;;3.05;;
38693;SDS011;24447;43.460;25.744;2024-03-22T11:01:05;9.25;;;3.40;;
38693;SDS011;24447;43.460;25.744;2024-03-22T11:03:31;13.38;;;4.53;;
38693;SDS011;24447;43.460;25.744;2024-03-22T11:05:58;14.63;;;4.95;;
38693;SDS011;24447;43.460;25.744;2024-03-22T11:08:25;6.97;;;3.65;;
38693;SDS011;24447;43.460;25.744;2024-03-22T11:10:52;6.22;;;3.20;;
38693;SDS011;24447;43.460;25.744;2024-03-22T11:13:19;7.50;;;2.65;;
38693;SDS011;24447;43.460;25.744;2024-03-22T11:15:48;8.68;;;2.88;;
38693;SDS011;24447;43.460;25.744;2024-03-22T11:18:15;8.82;;;3.97;;
38693;SDS011;24447;43.460;25.744;2024-03-22T11:20:41;5.63;;;2.67;;
38693;SDS011;24447;43.460;25.744;2024-03-22T11:23:08;4.38;;;2.60;;
38693;SDS011;24447;43.460;25.744;2024-03-22T11:25:34;10.20;;;3.15;;
38693;SDS011;24447;43.460;25.744;2024-03-22T11:28:01;5.28;;;3.38;;
38693;SDS011;24447;43.460;25.744;2024-03-22T11:30:31;13.65;;;4.85;;
38693;SDS011;24447;43.460;25.744;2024-03-22T11:32:59;7.85;;;2.95;;
38693;SDS011;24447;43.460;25.744;2024-03-22T11:35:27;6.90;;;3.35;;
38693;SDS011;24447;43.460;25.744;2024-03-22T11:37:52;14.57;;;5.15;;
38693;SDS011;24447;43.460;25.744;2024-03-22T11:40:19;19.10;;;5.40;;
38693;SDS011;24447;43.460;25.744;2024-03-22T11:42:46;7.50;;;2.85;;
38693;SDS011;24447;43.460;25.744;2024-03-22T11:45:13;6.57;;;3.15;;
38693;SDS011;24447;43.460;25.744;2024-03-22T11:47:40;9.18;;;3.78;;
38693;SDS011;24447;43.460;25.744;2024-03-22T11:50:06;4.47;;;2.63;;
38693;SDS011;24447;43.460;25.744;2024-03-22T11:52:34;6.28;;;2.45;;
38693;SDS011;24447;43.460;25.744;2024-03-22T11:55:01;7.50;;;3.17;;
38693;SDS011;24447;43.460;25.744;2024-03-22T11:57:27;9.52;;;3.47;;
38693;SDS011;24447;43.460;25.744;2024-03-22T11:59:58;4.43;;;2.53;;
38693;SDS011;24447;43.460;25.744;2024-03-22T12:02:24;5.72;;;2.90;;
38693;SDS011;24447;43.460;25.744;2024-03-22T12:04:50;5.25;;;2.40;;
38693;SDS011;24447;43.460;25.744;2024-03-22T12:07:17;5.38;;;3.08;;
38693;SDS011;24447;43.460;25.744;2024-03-22T12:09:43;5.30;;;2.95;;
38693;SDS011;24447;43.460;25.744;2024-03-22T12:12:10;5.93;;;2.70;;
38693;SDS011;24447;43.460;25.744;2024-03-22T12:14:40;7.82;;;3.00;;
38693;SDS011;24447;43.460;25.744;2024-03-22T12:17:07;4.85;;;2.58;;
38693;SDS011;24447;43.460;25.744;2024-03-22T12:19:33;4.15;;;2.55;;
38693;SDS011;24447;43.460;25.744;2024-03-22T12:21:59;5.97;;;2.53;;
38693;SDS011;24447;43.460;25.744;2024-03-22T12:24:26;5.22;;;2.55;;
38693;SDS011;24447;43.460;25.744;2024-03-22T12:26:52;4.30;;;2.42;;
38693;SDS011;24447;43.460;25.744;2024-03-22T12:29:19;4.53;;;1.88;;
38693;SDS011;24447;43.460;25.744;2024-03-22T12:31:45;4.18;;;2.55;;
38693;SDS011;24447;43.460;25.744;2024-03-22T12:34:12;2.88;;;2.03;;
38693;SDS011;24447;43.460;25.744;2024-03-22T12:36:38;4.50;;;2.42;;
38693;SDS011;24447;43.460;25.744;2024-03-22T12:39:04;3.92;;;2.17;;
38693;SDS011;24447;43.460;25.744;2024-03-22T12:41:30;5.18;;;2.25;;
38693;SDS011;24447;43.460;25.744;2024-03-22T12:43:56;3.75;;;1.77;;
38693;SDS011;24447;43.460;25.744;2024-03-22T12:46:22;4.45;;;1.83;;
38693;SDS011;24447;43.460;25.744;2024-03-22T12:48:49;3.90;;;2.08;;
38693;SDS011;24447;43.460;25.744;2024-03-22T12:51:15;5.10;;;1.98;;
38693;SDS011;24447;43.460;25.744;2024-03-22T12:53:41;6.22;;;2.53;;
38693;SDS011;24447;43.460;25.744;2024-03-22T12:56:07;3.33;;;1.90;;
38693;SDS011;24447;43.460;25.744;2024-03-22T12:58:33;4.68;;;2.08;;
38693;SDS011;24447;43.460;25.744;2024-03-22T13:00:59;3.42;;;1.65;;
38693;SDS011;24447;43.460;25.744;2024-03-22T13:03:26;4.65;;;2.10;;
38693;SDS011;24447;43.460;25.744;2024-03-22T13:05:52;6.93;;;1.83;;
38693;SDS011;24447;43.460;25.744;2024-03-22T13:08:18;1.95;;;1.50;;
38693;SDS011;24447;43.460;25.744;2024-03-22T13:10:45;3.70;;;1.90;;
38693;SDS011;24447;43.460;25.744;2024-03-22T13:13:12;6.30;;;2.08;;
38693;SDS011;24447;43.460;25.744;2024-03-22T13:15:40;2.53;;;1.88;;
38693;SDS011;24447;43.460;25.744;2024-03-22T13:18:07;4.88;;;2.15;;
38693;SDS011;24447;43.460;25.744;2024-03-22T13:20:34;6.22;;;2.53;;
38693;SDS011;24447;43.460;25.744;2024-03-22T13:23:00;6.10;;;2.88;;
38693;SDS011;24447;43.460;25.744;2024-03-22T13:25:26;5.35;;;2.30;;
38693;SDS011;24447;43.460;25.744;2024-03-22T13:27:52;4.72;;;1.92;;
38693;SDS011;24447;43.460;25.744;2024-03-22T13:30:19;13.80;;;5.13;;
38693;SDS011;24447;43.460;25.744;2024-03-22T13:32:45;12.80;;;4.72;;
38693;SDS011;24447;43.460;25.744;2024-03-22T13:35:11;4.35;;;1.73;;
38693;SDS011;24447;43.460;25.744;2024-03-22T13:37:37;6.18;;;2.33;;
38693;SDS011;24447;43.460;25.744;2024-03-22T13:40:03;7.72;;;3.30;;
38693;SDS011;24447;43.460;25.744;2024-03-22T13:42:29;9.05;;;3.30;;
38693;SDS011;24447;43.460;25.744;2024-03-22T13:44:58;4.18;;;2.72;;
38693;SDS011;24447;43.460;25.744;2024-03-22T13:47:24;10.27;;;3.35;;
38693;SDS011;24447;43.460;25.744;2024-03-22T13:49:50;3.22;;;1.92;;
38693;SDS011;24447;43.460;25.744;2024-03-22T13:52:16;6.22;;;2.45;;
38693;SDS011;24447;43.460;25.744;2024-03-22T13:54:43;4.78;;;2.20;;
38693;SDS011;24447;43.460;25.744;2024-03-22T13:57:09;3.53;;;2.10;;
38693;SDS011;24447;43.460;25.744;2024-03-22T13:59:35;4.00;;;2.33;;
38693;SDS011;24447;43.460;25.744;2024-03-22T14:02:01;7.93;;;2.50;;
38693;SDS011;24447;43.460;25.744;2024-03-22T14:04:28;10.23;;;3.90;;
38693;SDS011;24447;43.460;25.744;2024-03-22T14:06:54;9.57;;;3.92;;
38693;SDS011;24447;43.460;25.744;2024-03-22T14:09:20;3.10;;;1.98;;
38693;SDS011;24447;43.460;25.744;2024-03-22T14:11:46;5.57;;;2.90;;
38693;SDS011;24447;43.460;25.744;2024-03-22T14:14:14;5.47;;;2.35;;
38693;SDS011;24447;43.460;25.744;2024-03-22T14:16:40;5.22;;;2.58;;
38693;SDS011;24447;43.460;25.744;2024-03-22T14:19:09;10.77;;;3.10;;
38693;SDS011;24447;43.460;25.744;2024-03-22T14:21:36;5.13;;;2.50;;
38693;SDS011;24447;43.460;25.744;2024-03-22T14:24:03;2.22;;;2.03;;
38693;SDS011;24447;43.460;25.744;2024-03-22T14:26:29;5.00;;;2.45;;